Terminal Aerodrome Forecast
Issued by NWS King Salmon, AK

Home | Current Version | Previous Version | Text Only | Print | Product List | Glossary On
Versions: 1 2 3 4 5 6 7 8 9 10 11 12 13 14 15 16 17 18 19 20 21
000
FTAK31 PANC 242340
TAFAKN
TAF
PAKN 242340Z 2500/2524 VRB05KT P6SM -RA SCT025 BKN045
      TEMPO 2504/2508 12008KT P6SM SCT025 SCT050 BKN080
     FM251200 07006KT P6SM VCSH OVC050
     FM252100 12008KT P6SM -SHRA SCT025 OVC050=

USA.gov is the U.S. government's official web portal to all federal, state and local government web resources and services.